»·PEaware :: DAL278 KPHX-KSAN

DAL278 :: KPHX-KSAN

FLIGHT INFORMATION

Flight Status: Arrived
Operator:
Delta Air Lines
More flights by this operator :: More flights under this callsign
Pilot: Reece F. (16700)
Aircraft: BOEING 737-800
(B738)
More flights by this aircraft type
Origin: KPHX Phoenix Sky Harbor Intl
United States
Destination: KSAN San Diego Intl-Lindbergh
United States
More flights between these airports :: More routes between these airports
Route: +JUDTH6 MOHAK J2 HOGGZ IPL LYNDI4
File this flight plan on PilotEdge
Remarks:
Altitude:
(Current/Filed)
32,000ft
Speed:
(Current/Filed)
0kts
Departed: 25-Sep-17 09:05 PM
Arrived: 25-Sep-17 10:02 PM
Distance/Time
Traveled:
264nm/0:56
Distance/Time
To Go:
Arrived

Flight Plot

Page will automatically refresh every two minutes.

Flight plan parsing failed; only flown route is shown


Map Options




Map Legend


Flown Route
Filed Route
Departure Airport
Arrival Airport
Navaid (VOR, NDB)
Fix

Horizontal Profiles

Position Reports

Time Latitude Longitude Heading Altitude Ground
Speed
25-Sep-17 20:48 33.433420 -111.999430 0 1126ft 0kts
25-Sep-17 20:49 33.433420 -111.999430 0 1126ft 0kts
25-Sep-17 20:50 33.433420 -111.999430 0 1126ft 0kts
25-Sep-17 20:51 33.433420 -111.999430 0 1126ft 0kts
25-Sep-17 20:52 33.433420 -111.999430 0 1126ft 0kts
25-Sep-17 20:53 33.433420 -111.999430 0 1126ft 0kts
25-Sep-17 20:54 33.433420 -111.999430 0 1126ft 0kts
25-Sep-17 20:55 33.433420 -111.999430 0 1126ft 0kts
25-Sep-17 20:56 33.433420 -111.999430 0 1126ft 0kts
25-Sep-17 20:57 33.433420 -111.999430 0 1126ft 0kts
25-Sep-17 20:58 33.433420 -111.999430 0 1126ft 0kts
25-Sep-17 20:59 33.433187 -111.999430 0 1126ft 3kts
25-Sep-17 21:00 33.432761 -111.999670 71 1126ft 3kts
25-Sep-17 21:01 33.432740 -111.999855 90 1126ft 0kts
25-Sep-17 21:02 33.432745 -111.999422 81 1126ft 10kts
25-Sep-17 21:03 33.432136 -111.996189 89 1124ft 19kts
25-Sep-17 21:04 33.432152 -111.994669 91 1124ft 0kts
25-Sep-17 21:05 33.432152 -111.994666 91 1124ft 0kts
25-Sep-17 21:06 33.431978 -111.993623 123 1124ft 0kts
25-Sep-17 21:07 33.431059 -111.993991 258 1124ft 18kts
25-Sep-17 21:08 33.431037 -111.994392 268 1124ft 0kts
25-Sep-17 21:09 33.431047 -111.996086 270 1124ft 63kts
25-Sep-17 21:10 33.431066 -112.006059 270 1135ft 159kts
25-Sep-17 21:11 33.431662 -112.022774 285 1639ft 209kts
25-Sep-17 21:12 33.441764 -112.043104 315 2516ft 255kts
25-Sep-17 21:13 33.460119 -112.056904 340 3300ft 268kts
25-Sep-17 21:14 33.489894 -112.058138 15 4286ft 270kts
25-Sep-17 21:15 33.518605 -112.036979 30 5416ft 274kts
25-Sep-17 21:16 33.570937 -112.036310 331 7201ft 290kts
25-Sep-17 21:17 33.590949 -112.057616 304 8041ft 293kts
25-Sep-17 21:18 33.600579 -112.112982 257 9532ft 305kts
25-Sep-17 21:19 33.564935 -112.172412 211 11296ft 366kts
25-Sep-17 21:20 33.497941 -112.190280 173 12945ft 414kts
25-Sep-17 21:21 33.452406 -112.173375 151 13964ft 425kts
25-Sep-17 21:22 33.381059 -112.139457 173 15556ft 436kts
25-Sep-17 21:23 33.296089 -112.165277 210 17322ft 452kts
25-Sep-17 21:24 33.242508 -112.240567 243 18922ft 468kts
25-Sep-17 21:25 33.230859 -112.344790 274 20571ft 484kts
25-Sep-17 21:26 33.240591 -112.448978 274 21674ft 490kts
25-Sep-17 21:27 33.242997 -112.522296 261 22773ft 493kts
25-Sep-17 21:28 33.227129 -112.585127 243 23764ft 491kts
25-Sep-17 21:29 33.204505 -112.645875 244 24792ft 500kts
25-Sep-17 21:30 33.177732 -112.718319 243 25984ft 508kts
25-Sep-17 21:31 33.152214 -112.787680 243 27106ft 512kts
25-Sep-17 21:32 33.120528 -112.873347 244 28601ft 511kts
25-Sep-17 21:33 33.086679 -112.964043 249 30103ft 510kts
25-Sep-17 21:34 33.048604 -113.068148 248 31723ft 510kts
25-Sep-17 21:35 33.015488 -113.157508 248 31852ft 530kts
25-Sep-17 21:36 32.971951 -113.274360 248 31846ft 531kts
25-Sep-17 21:37 32.928607 -113.390297 248 31845ft 530kts
25-Sep-17 21:38 32.885677 -113.504753 248 31841ft 530kts
25-Sep-17 21:39 32.842935 -113.618335 248 31835ft 530kts
25-Sep-17 21:40 32.814933 -113.709811 260 31825ft 526kts
25-Sep-17 21:41 32.798832 -113.839569 273 31807ft 521kts
25-Sep-17 21:42 32.817636 -113.928812 296 31816ft 515kts
25-Sep-17 21:43 32.884880 -114.016821 327 31819ft 512kts
25-Sep-17 21:44 32.960449 -114.121830 293 31818ft 516kts
25-Sep-17 21:45 32.984018 -114.236832 283 31815ft 519kts
25-Sep-17 21:46 32.981399 -114.334708 259 31825ft 526kts
25-Sep-17 21:47 32.977397 -114.400118 276 31817ft 521kts
25-Sep-17 21:48 33.003980 -114.514663 283 31815ft 519kts
25-Sep-17 21:49 33.007124 -114.568959 269 31817ft 524kts
25-Sep-17 21:50 32.997205 -114.629724 254 31820ft 529kts
25-Sep-17 21:51 32.977426 -114.701466 253 31835ft 529kts
25-Sep-17 21:52 32.960145 -114.763343 253 31836ft 528kts
25-Sep-17 21:53 32.941263 -114.830710 253 31695ft 523kts
25-Sep-17 21:54 32.910652 -114.939607 253 29965ft 506kts
25-Sep-17 21:55 32.894620 -114.996329 253 29052ft 500kts
25-Sep-17 21:56 32.876014 -115.061575 254 27993ft 496kts
25-Sep-17 21:57 32.850724 -115.150228 255 26536ft 491kts
25-Sep-17 21:58 32.827893 -115.230493 255 25205ft 485kts
25-Sep-17 21:59 32.800375 -115.327817 255 23563ft 474kts
25-Sep-17 22:00 32.776145 -115.413214 254 22092ft 464kts
25-Sep-17 22:01 32.755155 -115.487811 257 20775ft 455kts
25-Sep-17 22:02 32.749160 -115.543055 269 19815ft 444kts
25-Sep-17 22:03 32.746782 -115.599451 270 18839ft 438kts
25-Sep-17 22:04 32.743639 -115.703671 270 17000ft 427kts
25-Sep-17 22:05 32.739687 -115.841754 269 14491ft 412kts
25-Sep-17 22:06 32.731200 -117.195340 264 22ft 0kts
25-Sep-17 22:07 32.731200 -117.195340 265 22ft 0kts
25-Sep-17 22:08 32.731853 -117.195861 247 21ft 0kts
25-Sep-17 22:09 32.731853 -117.195861 247 21ft 0kts
25-Sep-17 22:10 32.731853 -117.195861 247 21ft 0kts
25-Sep-17 22:11 32.731853 -117.195861 247 21ft 0kts
25-Sep-17 22:12 32.731853 -117.195861 247 21ft 0kts
25-Sep-17 22:13 32.731853 -117.195861 247 21ft 0kts
25-Sep-17 22:14 32.731853 -117.195861 247 21ft 0kts
25-Sep-17 22:15 32.731853 -117.195861 247 21ft 0kts
25-Sep-17 22:16 32.731853 -117.195861 247 21ft 0kts
25-Sep-17 22:17 32.731853 -117.195861 247 21ft 0kts
25-Sep-17 22:18 32.731853 -117.195861 247 21ft 0kts

Navigation Log

Ident Type
Flight plan parsing failed, navigation log unavailable